createdAt,value
2019-05-11T00:00:12.116Z,11.43
2019-05-11T00:02:43.759Z,9.60
2019-05-11T00:05:15.418Z,8.53
2019-05-11T00:07:47.069Z,8.10
2019-05-11T00:10:18.827Z,7.37
2019-05-11T00:12:50.481Z,8.68
2019-05-11T00:15:22.547Z,8.23
2019-05-11T00:17:54.402Z,8.60
2019-05-11T00:20:25.961Z,7.87
2019-05-11T00:22:57.716Z,8.00
2019-05-11T00:25:29.161Z,8.05
2019-05-11T00:28:00.743Z,7.47
2019-05-11T00:30:32.370Z,7.25
2019-05-11T00:33:04.334Z,7.30
2019-05-11T00:35:35.885Z,7.80
2019-05-11T00:38:07.641Z,7.47
2019-05-11T00:40:39.402Z,7.95
2019-05-11T00:45:41.278Z,7.85
2019-05-11T00:48:12.930Z,8.15
2019-05-11T00:50:44.689Z,8.28
2019-05-11T00:53:16.595Z,8.58
2019-05-11T00:55:48.408Z,8.78
2019-05-11T00:58:21.392Z,9.55
2019-05-11T01:03:24.309Z,10.82
2019-05-11T01:08:26.173Z,9.98
2019-05-11T01:10:57.825Z,10.00
2019-05-11T01:13:30.306Z,9.83
2019-05-11T01:16:02.064Z,10.08
2019-05-11T01:18:34.022Z,10.58
2019-05-11T01:21:05.572Z,9.68
2019-05-11T01:26:09.300Z,8.95
2019-05-11T01:28:41.149Z,9.00
2019-05-11T01:33:43.243Z,9.23
2019-05-11T01:36:14.792Z,8.98
2019-05-11T01:38:46.646Z,9.58
2019-05-11T01:41:18.607Z,8.40
2019-05-11T01:43:50.361Z,8.45
2019-05-11T01:46:22.225Z,9.25
2019-05-11T01:48:53.982Z,9.40
2019-05-11T01:51:25.966Z,8.85
2019-05-11T01:53:57.397Z,9.18
2019-05-11T01:56:29.251Z,9.20
2019-05-11T01:59:01.013Z,9.03
2019-05-11T02:04:03.817Z,9.65
2019-05-11T02:06:35.769Z,9.63
2019-05-11T02:09:07.734Z,9.33
2019-05-11T02:11:39.388Z,9.85
2019-05-11T02:14:11.243Z,10.15
2019-05-11T02:16:43.207Z,11.95
2019-05-11T02:19:14.966Z,10.32
2019-05-11T02:24:16.824Z,9.70
2019-05-11T02:26:48.603Z,12.53
2019-05-11T02:29:20.360Z,10.78
2019-05-11T02:34:22.441Z,10.08
2019-05-11T02:36:53.992Z,9.28
2019-05-11T02:39:25.748Z,10.82
2019-05-11T02:41:58.631Z,9.73
2019-05-11T02:47:00.616Z,9.55
2019-05-11T02:49:32.581Z,10.65
2019-05-11T02:52:04.924Z,12.05
2019-05-11T02:54:37.590Z,13.72
2019-05-11T02:57:08.973Z,11.12
2019-05-11T02:59:40.627Z,11.22
2019-05-11T03:02:12.602Z,11.40
2019-05-11T03:04:44.141Z,11.80
2019-05-11T03:07:15.715Z,9.48
2019-05-11T03:09:47.557Z,9.68
2019-05-11T03:12:19.619Z,10.40
2019-05-11T03:14:51.173Z,9.35
2019-05-11T03:17:24.463Z,9.78
2019-05-11T03:19:55.814Z,9.15
2019-05-11T03:22:27.463Z,10.98
2019-05-11T03:24:58.919Z,10.25
2019-05-11T03:27:30.591Z,11.60
2019-05-11T03:30:02.555Z,10.88
2019-05-11T03:32:36.030Z,16.93
2019-05-11T03:35:07.888Z,17.17
2019-05-11T03:37:39.658Z,13.08
2019-05-11T03:40:12.021Z,14.43
2019-05-11T03:42:43.877Z,14.10
2019-05-11T03:45:16.066Z,14.20
2019-05-11T03:47:47.699Z,13.70
2019-05-11T03:50:19.565Z,19.42
2019-05-11T03:52:51.629Z,15.50
2019-05-11T03:55:23.085Z,14.78
2019-05-11T03:57:55.658Z,14.75
2019-05-11T04:00:27.415Z,13.10
2019-05-11T04:02:59.476Z,17.32
2019-05-11T04:05:31.022Z,19.90
2019-05-11T04:08:02.578Z,24.15
2019-05-11T04:10:34.339Z,23.38
2019-05-11T04:13:05.886Z,18.57
2019-05-11T04:15:37.566Z,16.77
2019-05-11T04:18:09.094Z,17.90
2019-05-11T04:20:40.954Z,15.28
2019-05-11T04:23:13.017Z,15.93
2019-05-11T04:25:44.880Z,14.38
2019-05-11T04:28:16.652Z,17.42
2019-05-11T04:30:48.398Z,15.48
2019-05-11T04:33:19.947Z,21.77
2019-05-11T04:35:51.604Z,14.70
2019-05-11T04:38:23.462Z,14.70
2019-05-11T04:40:55.114Z,14.70
2019-05-11T04:43:27.008Z,15.48
2019-05-11T04:45:58.636Z,16.20
2019-05-11T04:48:30.275Z,16.17
2019-05-11T04:51:02.041Z,16.75
2019-05-11T04:56:04.235Z,35.00
2019-05-11T05:01:06.614Z,25.52
2019-05-11T05:03:41.046Z,19.75
2019-05-11T05:06:22.202Z,16.00
2019-05-11T05:08:44.658Z,15.38
2019-05-11T05:11:16.715Z,19.65
2019-05-11T05:13:48.370Z,19.52
2019-05-11T05:16:20.231Z,18.35
2019-05-11T05:18:51.781Z,19.02
2019-05-11T05:21:23.435Z,22.22
2019-05-11T05:26:25.319Z,16.50
2019-05-11T05:28:56.867Z,18.52
2019-05-11T05:31:28.727Z,12.13
2019-05-11T05:34:01.446Z,15.10
2019-05-11T05:36:33.061Z,22.40
2019-05-11T05:39:08.901Z,18.45
2019-05-11T05:41:40.674Z,19.73
2019-05-11T05:44:13.144Z,19.20
2019-05-11T05:46:44.694Z,19.52
2019-05-11T05:51:46.897Z,18.75
2019-05-11T05:54:18.842Z,17.70
2019-05-11T05:56:50.499Z,14.15
2019-05-11T05:59:22.562Z,13.68
2019-05-11T06:01:54.383Z,14.28
2019-05-11T06:04:25.977Z,17.75
2019-05-11T06:06:57.829Z,13.18
2019-05-11T06:09:29.800Z,14.83
2019-05-11T06:12:01.579Z,12.33
2019-05-11T06:14:33.433Z,16.60
2019-05-11T06:17:04.964Z,12.98
2019-05-11T06:19:36.925Z,13.58
2019-05-11T06:22:08.692Z,11.93
2019-05-11T06:24:40.132Z,14.33
2019-05-11T06:29:42.112Z,15.75
2019-05-11T06:32:13.864Z,16.07
2019-05-11T06:34:45.421Z,16.45
2019-05-11T06:39:49.139Z,11.33
2019-05-11T06:42:21.003Z,11.08
2019-05-11T06:44:52.650Z,11.05
2019-05-11T06:47:25.847Z,9.60
2019-05-11T06:49:57.540Z,9.10
2019-05-11T06:52:29.575Z,9.40
2019-05-11T06:55:01.115Z,8.15
2019-05-11T06:57:32.873Z,9.70
2019-05-11T07:00:05.827Z,8.70
2019-05-11T07:02:38.027Z,11.45
2019-05-11T07:05:10.090Z,6.72
2019-05-11T07:07:47.412Z,6.15
2019-05-11T07:10:15.676Z,4.85
2019-05-11T07:12:47.246Z,5.10
2019-05-11T07:15:18.759Z,4.58
2019-05-11T07:17:50.511Z,5.47
2019-05-11T07:20:23.399Z,5.72
2019-05-11T07:22:55.054Z,6.85
2019-05-11T07:25:26.914Z,6.05
2019-05-11T07:27:58.568Z,4.75
2019-05-11T07:30:30.222Z,4.58
2019-05-11T07:33:02.389Z,4.40
2019-05-11T07:35:34.553Z,5.08
2019-05-11T07:38:08.353Z,4.20
2019-05-11T07:40:39.509Z,7.33
2019-05-11T07:43:11.879Z,3.80
2019-05-11T07:45:43.532Z,3.52
2019-05-11T07:48:15.403Z,9.08
2019-05-11T07:50:48.021Z,5.95
2019-05-11T07:53:19.933Z,5.45
2019-05-11T07:55:51.591Z,3.80
2019-05-11T08:00:53.864Z,4.65
2019-05-11T08:03:28.183Z,3.42
2019-05-11T08:06:02.757Z,5.17
2019-05-11T08:08:33.132Z,3.65
2019-05-11T08:11:07.942Z,3.75
2019-05-11T08:13:39.018Z,3.58
2019-05-11T08:16:11.578Z,5.33
2019-05-11T08:18:43.437Z,2.87
2019-05-11T08:21:17.692Z,4.45
2019-05-11T08:23:49.006Z,3.20
2019-05-11T08:26:20.661Z,3.90
2019-05-11T08:28:52.624Z,4.30
2019-05-11T08:31:24.291Z,5.30
2019-05-11T08:33:58.234Z,5.42
2019-05-11T08:36:29.288Z,4.53
2019-05-11T08:39:00.777Z,3.27
2019-05-11T08:41:32.531Z,3.70
2019-05-11T08:44:04.373Z,5.97
2019-05-11T08:46:38.374Z,4.72
2019-05-11T08:49:09.345Z,5.70
2019-05-11T08:51:41.315Z,6.97
2019-05-11T08:54:13.163Z,5.42
2019-05-11T08:56:44.713Z,10.08
2019-05-11T08:59:18.639Z,12.33
2019-05-11T09:01:50.481Z,6.30
2019-05-11T09:04:22.043Z,4.97
2019-05-11T09:06:53.894Z,5.28
2019-05-11T09:09:25.657Z,5.62
2019-05-11T09:11:58.922Z,7.65
2019-05-11T09:14:30.636Z,7.95
2019-05-11T09:17:02.307Z,8.20
2019-05-11T09:19:34.050Z,7.67
2019-05-11T09:22:08.085Z,4.20
2019-05-11T09:24:39.169Z,3.50
2019-05-11T09:27:11.024Z,3.25
2019-05-11T09:29:42.580Z,4.67
2019-05-11T09:32:14.440Z,3.22
2019-05-11T09:34:48.318Z,4.22
2019-05-11T09:37:19.489Z,3.92
2019-05-11T09:39:51.146Z,3.92
2019-05-11T09:42:23.003Z,4.30
2019-05-11T09:44:54.354Z,5.05
2019-05-11T09:47:27.945Z,5.83
2019-05-11T09:49:59.196Z,6.00
2019-05-11T09:52:32.713Z,6.50
2019-05-11T09:55:05.476Z,10.65
2019-05-11T09:57:38.800Z,6.37
2019-05-11T10:00:10.626Z,6.25
2019-05-11T10:02:42.696Z,11.73
2019-05-11T10:05:14.556Z,10.70
2019-05-11T10:07:48.365Z,4.65
2019-05-11T10:10:19.296Z,7.25
2019-05-11T10:12:53.098Z,7.03
2019-05-11T10:15:24.670Z,6.55
2019-05-11T10:17:58.221Z,5.62
2019-05-11T10:20:29.411Z,5.17
2019-05-11T10:23:01.257Z,7.12
2019-05-11T10:25:32.662Z,7.40
2019-05-11T10:28:04.255Z,4.33
2019-05-11T10:30:38.414Z,5.50
2019-05-11T10:33:09.414Z,5.60
2019-05-11T10:35:41.999Z,5.90
2019-05-11T10:38:15.082Z,11.83
2019-05-11T10:40:48.017Z,8.35
2019-05-11T10:43:20.640Z,7.80
2019-05-11T10:48:22.703Z,9.97
2019-05-11T10:50:54.480Z,9.43
2019-05-11T10:53:27.886Z,8.78
2019-05-11T10:55:59.425Z,8.53
2019-05-11T10:58:31.286Z,11.15
2019-05-11T11:01:03.072Z,10.68
2019-05-11T11:03:35.109Z,8.83
2019-05-11T11:06:08.450Z,8.83
2019-05-11T11:08:40.181Z,10.68
2019-05-11T11:11:11.711Z,16.48
2019-05-11T11:13:43.373Z,10.43
2019-05-11T11:16:14.917Z,13.28
2019-05-11T11:18:48.570Z,14.58
2019-05-11T11:21:22.776Z,10.30
2019-05-11T11:23:53.163Z,13.83
2019-05-11T11:26:25.015Z,11.20
2019-05-11T11:28:58.125Z,13.70
2019-05-11T11:31:29.762Z,21.52
2019-05-11T11:34:01.224Z,17.55
2019-05-11T11:36:32.871Z,12.43
2019-05-11T11:39:08.366Z,13.00
2019-05-11T11:41:39.964Z,13.30
2019-05-11T11:44:12.340Z,12.58
2019-05-11T11:46:52.159Z,13.55
2019-05-11T11:49:18.795Z,12.35
2019-05-11T11:51:50.915Z,11.57
2019-05-11T11:54:23.004Z,11.00
2019-05-11T11:56:54.708Z,10.30
2019-05-11T12:01:58.103Z,12.88
2019-05-11T12:04:30.083Z,12.20
2019-05-11T12:07:01.939Z,11.78
2019-05-11T12:09:33.714Z,10.98
2019-05-11T12:12:07.851Z,14.33
2019-05-11T12:14:39.061Z,11.65
2019-05-11T12:17:11.236Z,13.72
2019-05-11T12:19:42.879Z,13.10
2019-05-11T12:22:14.334Z,13.90
2019-05-11T12:24:48.108Z,13.50
2019-05-11T12:27:19.693Z,13.62
2019-05-11T12:29:51.550Z,14.40
2019-05-11T12:32:27.679Z,14.10
2019-05-11T12:34:59.570Z,19.40
2019-05-11T12:37:31.328Z,15.38
2019-05-11T12:40:04.003Z,17.67
2019-05-11T12:42:38.060Z,20.15
2019-05-11T12:45:10.133Z,23.62
2019-05-11T12:47:41.530Z,17.12
2019-05-11T12:50:13.491Z,17.48
2019-05-11T12:52:47.547Z,16.27
2019-05-11T12:55:18.541Z,20.60
2019-05-11T12:57:50.198Z,18.80
2019-05-11T13:00:22.258Z,16.62
2019-05-11T13:02:54.323Z,22.25
2019-05-11T13:05:25.778Z,19.60
2019-05-11T13:07:58.621Z,18.77
2019-05-11T13:10:30.417Z,13.30
2019-05-11T13:13:02.796Z,13.48
2019-05-11T13:15:34.419Z,13.88
2019-05-11T13:18:08.377Z,17.10
2019-05-11T13:20:41.640Z,14.03
2019-05-11T13:23:13.399Z,15.10
2019-05-11T13:25:45.056Z,14.23
2019-05-11T13:28:17.966Z,15.95
2019-05-11T13:30:49.599Z,15.68
2019-05-11T13:35:51.777Z,18.37
2019-05-11T13:38:23.533Z,25.25
2019-05-11T13:40:56.116Z,19.60
2019-05-11T13:43:30.120Z,14.68
2019-05-11T13:46:01.883Z,15.18
2019-05-11T13:48:33.748Z,13.68
2019-05-11T13:51:05.496Z,13.90
2019-05-11T13:53:37.790Z,15.00
2019-05-11T13:56:09.418Z,15.35
2019-05-11T13:58:40.976Z,14.60
2019-05-11T14:01:13.245Z,14.55
2019-05-11T14:03:44.734Z,14.15
2019-05-11T14:06:18.490Z,14.15
2019-05-11T14:08:49.551Z,19.42
2019-05-11T14:11:21.291Z,17.02
2019-05-11T14:13:53.157Z,18.30
2019-05-11T14:16:27.136Z,15.60
2019-05-11T14:18:58.417Z,18.75
2019-05-11T14:21:30.372Z,18.20
2019-05-11T14:24:01.922Z,18.82
2019-05-11T14:26:33.579Z,18.65
2019-05-11T14:29:05.546Z,15.03
2019-05-11T14:31:38.650Z,15.55
2019-05-11T14:34:10.590Z,15.58
2019-05-11T14:36:42.446Z,14.10
2019-05-11T14:39:14.106Z,13.25
2019-05-11T14:41:48.561Z,24.32
2019-05-11T14:44:19.067Z,13.78
2019-05-11T14:46:50.614Z,13.60
2019-05-11T14:49:22.363Z,13.28
2019-05-11T14:51:54.639Z,13.25
2019-05-11T14:54:28.655Z,15.65
2019-05-11T14:56:59.889Z,14.73
2019-05-11T14:59:31.565Z,13.10
2019-05-11T15:02:08.679Z,13.28
2019-05-11T15:04:40.072Z,12.60
2019-05-11T15:07:12.045Z,13.25
2019-05-11T15:09:43.693Z,13.08
2019-05-11T15:12:15.451Z,14.58
2019-05-11T15:17:19.279Z,12.50
2019-05-11T15:19:51.236Z,13.35
2019-05-11T15:22:23.097Z,11.55
2019-05-11T15:27:25.071Z,11.75
2019-05-11T15:29:58.812Z,11.88
2019-05-11T15:32:29.931Z,10.80
2019-05-11T15:35:01.571Z,11.18
2019-05-11T15:37:34.562Z,12.78
2019-05-11T15:40:14.918Z,12.53
2019-05-11T15:42:48.673Z,11.40
2019-05-11T15:45:21.620Z,10.88
2019-05-11T15:47:53.283Z,13.40
2019-05-11T15:50:25.123Z,10.63
2019-05-11T15:52:58.223Z,10.03
2019-05-11T15:55:30.070Z,10.68
2019-05-11T15:58:01.826Z,10.72
2019-05-11T16:03:04.132Z,11.08
2019-05-11T16:05:35.969Z,11.45
2019-05-11T16:08:08.652Z,8.43
2019-05-11T16:10:40.307Z,9.18
2019-05-11T16:13:12.265Z,8.73
2019-05-11T16:15:44.066Z,13.70
2019-05-11T16:18:18.675Z,11.68
2019-05-11T16:20:52.645Z,11.08
2019-05-11T16:23:28.410Z,8.93
2019-05-11T16:26:00.069Z,8.90
2019-05-11T16:28:31.923Z,9.98
2019-05-11T16:31:03.786Z,10.58
2019-05-11T16:33:36.678Z,10.20
2019-05-11T16:36:09.208Z,8.48
2019-05-11T16:38:42.805Z,9.38
2019-05-11T16:41:17.858Z,10.65
2019-05-11T16:43:49.635Z,7.78
2019-05-11T16:46:21.494Z,9.10
2019-05-11T16:48:53.354Z,10.18
2019-05-11T16:51:24.923Z,10.35
2019-05-11T16:53:58.776Z,12.95
2019-05-11T16:56:30.477Z,12.18
2019-05-11T16:59:02.543Z,13.08
2019-05-11T17:01:34.557Z,12.78
2019-05-11T17:04:06.048Z,11.80
2019-05-11T17:06:38.577Z,14.20
2019-05-11T17:09:10.497Z,21.00
2019-05-11T17:11:42.555Z,19.05
2019-05-11T17:14:14.131Z,20.77
2019-05-11T17:16:48.063Z,21.50
2019-05-11T17:19:19.974Z,18.37
2019-05-11T17:21:52.146Z,19.77
2019-05-11T17:24:23.892Z,20.60
2019-05-11T17:26:58.231Z,23.10
2019-05-11T17:29:29.260Z,22.98
2019-05-11T17:32:00.920Z,25.27
2019-05-11T17:34:32.801Z,24.85
2019-05-11T17:37:08.365Z,24.45
2019-05-11T17:39:39.357Z,23.00
2019-05-11T17:42:11.420Z,24.67
2019-05-11T17:44:42.981Z,23.30
2019-05-11T17:47:14.944Z,21.12
2019-05-11T17:49:57.350Z,20.48
2019-05-11T17:52:20.149Z,23.02
2019-05-11T17:54:54.947Z,21.02
2019-05-11T17:57:24.841Z,20.55
2019-05-11T17:59:57.942Z,19.15
2019-05-11T18:02:29.987Z,20.97
2019-05-11T18:05:01.441Z,19.57
2019-05-11T18:07:34.211Z,19.75
2019-05-11T18:10:08.208Z,19.50
2019-05-11T18:12:39.895Z,19.17
2019-05-11T18:15:11.925Z,20.00
2019-05-11T18:17:43.381Z,16.82
2019-05-11T18:20:18.649Z,18.10
2019-05-11T18:22:49.499Z,16.97
2019-05-11T18:25:21.227Z,15.25
2019-05-11T18:27:52.987Z,15.78
2019-05-11T18:30:24.636Z,12.85
2019-05-11T18:32:59.226Z,12.78
2019-05-11T18:35:29.694Z,15.80
2019-05-11T18:38:01.347Z,15.55
2019-05-11T18:40:33.106Z,19.55
2019-05-11T18:43:05.170Z,15.75
2019-05-11T18:45:38.297Z,14.13
2019-05-11T18:48:10.225Z,14.03
2019-05-11T18:50:41.882Z,16.25
2019-05-11T18:53:14.047Z,20.85
2019-05-11T18:55:45.597Z,16.15
2019-05-11T18:58:18.434Z,16.10
2019-05-11T19:00:50.715Z,15.53
2019-05-11T19:03:22.919Z,14.87
2019-05-11T19:05:57.577Z,14.75
2019-05-11T19:08:28.226Z,14.78
2019-05-11T19:10:59.855Z,16.32
2019-05-11T19:13:31.782Z,15.80
2019-05-11T19:16:03.643Z,16.07
2019-05-11T19:18:35.609Z,16.87
2019-05-11T19:21:09.206Z,16.48
2019-05-11T19:23:40.145Z,16.77
2019-05-11T19:26:11.800Z,17.05
2019-05-11T19:28:43.455Z,18.07
2019-05-11T19:31:15.112Z,19.12
2019-05-11T19:33:48.951Z,19.37
2019-05-11T19:36:20.260Z,24.52
2019-05-11T19:38:51.918Z,29.65
2019-05-11T19:41:23.674Z,37.05
2019-05-11T19:43:57.691Z,37.35
2019-05-11T19:46:28.733Z,32.78
2019-05-11T19:49:00.477Z,30.30
2019-05-11T19:51:32.339Z,30.32
2019-05-11T19:54:03.993Z,27.95
2019-05-11T19:56:37.798Z,29.32
2019-05-11T19:59:08.951Z,45.73
2019-05-11T20:01:43.874Z,29.32
2019-05-11T20:04:15.430Z,29.98
2019-05-11T20:06:47.936Z,29.48
2019-05-11T20:09:19.558Z,28.60
2019-05-11T20:11:51.314Z,34.23
2019-05-11T20:14:22.760Z,33.40
2019-05-11T20:16:54.324Z,37.05
2019-05-11T20:19:27.852Z,40.35
2019-05-11T20:21:59.159Z,38.83
2019-05-11T20:24:30.813Z,36.80
2019-05-11T20:27:02.471Z,44.38
2019-05-11T20:29:35.563Z,36.53
2019-05-11T20:34:39.481Z,37.73
2019-05-11T20:37:11.136Z,37.20
2019-05-11T20:39:43.003Z,34.33
2019-05-11T20:44:45.178Z,30.17
2019-05-11T20:47:17.849Z,32.38
2019-05-11T20:49:49.412Z,28.98
2019-05-11T20:52:21.379Z,27.77
2019-05-11T20:54:52.825Z,24.90
2019-05-11T20:57:24.275Z,25.48
2019-05-11T20:59:57.568Z,23.77
2019-05-11T21:02:29.322Z,23.95
2019-05-11T21:05:00.975Z,27.02
2019-05-11T21:10:03.158Z,21.82
2019-05-11T21:12:35.024Z,21.73
2019-05-11T21:15:08.566Z,22.02
2019-05-11T21:21:06.513Z,23.67
2019-05-11T21:23:40.526Z,24.55
2019-05-11T21:26:11.154Z,23.52
2019-05-11T21:28:48.514Z,23.35
2019-05-11T21:31:19.074Z,21.10
2019-05-11T21:33:50.656Z,18.17
2019-05-11T21:36:22.176Z,18.48
2019-05-11T21:38:53.830Z,17.40
2019-05-11T21:41:30.492Z,15.78
2019-05-11T21:43:58.781Z,16.97
2019-05-11T21:49:01.983Z,17.95
2019-05-11T21:54:04.364Z,14.93
2019-05-11T21:56:40.553Z,15.88
2019-05-11T21:59:09.848Z,16.60
2019-05-11T22:01:41.695Z,17.17
2019-05-11T22:04:13.554Z,16.93
2019-05-11T22:06:45.207Z,16.05
2019-05-11T22:09:18.562Z,17.32
2019-05-11T22:11:50.172Z,18.20
2019-05-11T22:14:21.811Z,17.27
2019-05-11T22:16:53.572Z,16.65
2019-05-11T22:21:55.546Z,18.80
2019-05-11T22:24:28.290Z,21.23
2019-05-11T22:27:00.314Z,23.35
2019-05-11T22:29:31.951Z,23.55
2019-05-11T22:32:03.704Z,24.95
2019-05-11T22:34:37.833Z,26.15
2019-05-11T22:37:09.472Z,18.40
2019-05-11T22:39:40.922Z,18.17
2019-05-11T22:42:12.679Z,19.45
2019-05-11T22:44:44.743Z,20.97
2019-05-11T22:47:17.880Z,22.82
2019-05-11T22:49:49.775Z,22.15
2019-05-11T22:52:32.983Z,22.90
2019-05-11T22:54:55.557Z,25.85
2019-05-11T22:57:27.313Z,24.50
2019-05-11T23:00:01.575Z,24.45
2019-05-11T23:02:34.201Z,26.85
2019-05-11T23:05:08.474Z,25.85
2019-05-11T23:07:41.340Z,27.20
2019-05-11T23:10:13.271Z,28.67
2019-05-11T23:12:45.030Z,33.38
2019-05-11T23:15:18.527Z,36.70
2019-05-11T23:17:50.289Z,35.73
2019-05-11T23:20:22.246Z,36.23
2019-05-11T23:22:59.070Z,37.55
2019-05-11T23:25:28.748Z,36.35
2019-05-11T23:27:59.978Z,36.65
2019-05-11T23:30:31.731Z,36.33
2019-05-11T23:33:03.491Z,44.53
2019-05-11T23:35:35.144Z,49.00
2019-05-11T23:38:07.008Z,38.67
2019-05-11T23:40:38.772Z,42.75
2019-05-11T23:43:10.418Z,34.60
2019-05-11T23:48:12.613Z,37.17
2019-05-11T23:50:45.892Z,37.80
2019-05-11T23:53:19.599Z,35.20
2019-05-11T23:55:51.254Z,37.83
2019-05-11T23:58:22.915Z,39.53
